Pagrindinis puslapis
METAR-TAF:

METAR-TAF

Oro uostai :

Roswell International Air Center

Roswell, Naujoji Meksika, Jungtinės Amerikos Valstijos

platuma: 33-18-29N, ilguma: 104-30-28W, Aukštis: 1118 m

Dabartinis oras

Ataskaita buvo paskelbta 1 valandą ir 10 minutes, ne 08:51 UTC
Ramus vėjas
Temperatūra 17°C
Drėgmė 42%
Slėgis 1021 hPa
Matomumas: 16.1 km
Giedras dangus

METAR: KROW 020851Z AUTO 00000KT 10SM CLR 17/04 A3015 RMK AO2 SLP148 T01720044 53006 $

Laikas: 04:01 (10:01 UTC)

Prognozė

Ataskaita buvo paskelbta 4 valandos ir 25 minutes, ne 05:36 UTC
Prognozė galioja nuo 02 metu 06 UTC su 03 metu 06 UTC
Vėjas 7 kt iš Pietų/Pietryčių
Matomumas: 10 km
Mažai debesys ne aukštis 12000 ft
Nuo 02 metu 1800 UTC
Vėjas 13 kt iš Pietų su gūsio iki 22 kt
Matomumas: 10 km
Išsisklaidę debesys ne aukštis 11000 ft
Nuo 03 metu 0100 UTC
Vėjas 7 kt iš Pietų
Matomumas: 10 km
Mažai debesys ne aukštis 12000 ft

TAF: KROW 020536Z 0206/0306 16007KT P6SM FEW120 FM021800 17013G22KT P6SM SCT110 FM030100 17007KT P6SM FEW120

Orai ataskaitas ir orų prognozės (METAR, TAF).

turimą stotys yra geltonos ir raudonos taškus žemėlapyje.

Perkelti pele per norėdami pamatyti stoties vardą.

Tada spustelėkite, norėdami matyti oro stebėjimo ir prognozės.

Norėdami pakeisti žemėlapį: spustelėkite ant žalios mygtukų su juodo kryžiaus žemyn,; žalią mygtuką su brūkšneliu, jei norite nutolinti; arba žalių rodyklių gretimoms žemėlapius.


METAR-TAF: